Time;durP1;ratioP1;P1;durP2;ratioP2;P2;SDS_P1;SDS_P2;PMS_P1;PMS_P2;Temp;Humidity;BMP_temperature;BMP_pressure;BME280_temperature;BME280_humidity;BME280_pressure;Samples;Min_cycle;Max_cycle;Signal;HPM_P1;HPM_P2
2023/04/05 00:00:42;;;;;;;57.35;12.10;;;10.40;66.20;;;;;;5044428;28;20048;-57
2023/04/05 00:03:08;;;;;;;50.67;12.35;;;10.30;66.20;;;;;;5042966;28;20029;-57
2023/04/05 00:05:35;;;;;;;52.33;11.90;;;10.30;66.30;;;;;;5076129;28;20029;-57
2023/04/05 00:08:01;;;;;;;45.95;11.40;;;10.30;66.30;;;;;;5075852;28;20441;-57
2023/04/05 00:10:27;;;;;;;59.03;10.98;;;10.30;66.30;;;;;;5076070;28;20053;-57
2023/04/05 00:12:53;;;;;;;42.72;10.52;;;10.20;66.30;;;;;;5059579;28;20033;-57
2023/04/05 00:15:18;;;;;;;42.55;10.05;;;10.10;66.30;;;;;;5076840;28;20025;-57
2023/04/05 00:17:44;;;;;;;37.47;9.73;;;10.10;66.90;;;;;;5044374;28;20037;-57
2023/04/05 00:20:10;;;;;;;38.03;9.55;;;10.10;66.20;;;;;;5042971;28;20061;-57
2023/04/05 00:22:37;;;;;;;32.03;9.43;;;10.10;66.20;;;;;;5042653;28;20048;-57
2023/04/05 00:25:03;;;;;;;43.55;9.15;;;10.10;66.20;;;;;;5042819;28;20038;-57
2023/04/05 00:27:29;;;;;;;43.42;10.27;;;10.10;66.00;;;;;;5046194;28;20031;-57
2023/04/05 00:29:55;;;;;;;50.25;9.82;;;10.10;66.30;;;;;;5063422;28;20029;-57
2023/04/05 00:32:20;;;;;;;42.08;10.13;;;10.10;66.40;;;;;;5046751;28;20017;-58
2023/04/05 00:34:46;;;;;;;33.30;8.82;;;10.00;66.50;;;;;;5079997;28;20053;-57
2023/04/05 00:37:12;;;;;;;35.40;8.80;;;10.00;66.50;;;;;;5047715;28;20061;-58
2023/04/05 00:39:40;;;;;;;43.08;10.18;;;9.90;66.50;;;;;;5047905;28;20040;-57
2023/04/05 00:42:06;;;;;;;41.90;9.73;;;9.90;66.70;;;;;;5063453;28;20124;-57
2023/04/05 00:44:35;;;;;;;35.75;10.02;;;9.90;66.60;;;;;;5047178;28;20040;-57
2023/04/05 00:47:01;;;;;;;39.72;9.85;;;9.90;66.60;;;;;;5047561;28;20496;-56
2023/04/05 00:49:28;;;;;;;31.00;9.13;;;9.80;66.60;;;;;;5047282;28;20095;-57
2023/04/05 00:51:54;;;;;;;30.15;8.15;;;9.80;66.70;;;;;;5046147;28;20045;-57
2023/04/05 00:54:19;;;;;;;35.78;9.52;;;9.80;66.70;;;;;;5046365;28;20032;-57
2023/04/05 00:56:45;;;;;;;28.10;8.95;;;9.80;66.80;;;;;;5046328;28;20500;-57
2023/04/05 00:59:11;;;;;;;36.13;8.93;;;9.70;66.80;;;;;;5029557;28;20448;-57
2023/04/05 01:01:39;;;;;;;34.45;9.48;;;9.70;66.80;;;;;;5046197;28;20028;-57
2023/04/05 01:04:06;;;;;;;37.83;9.32;;;9.70;67.50;;;;;;5045939;28;20057;-57
2023/04/05 01:06:54;;;;;;;42.25;10.40;;;9.70;66.90;;;;;;5046088;28;20029;-57
2023/04/05 01:09:22;;;;;;;33.65;8.50;;;9.60;66.90;;;;;;5061990;28;20029;-57
2023/04/05 01:11:48;;;;;;;28.80;8.85;;;9.60;66.90;;;;;;5047300;28;20041;-57
2023/04/05 01:14:13;;;;;;;33.65;9.05;;;9.60;66.90;;;;;;5029303;28;20458;-58
2023/04/05 01:16:39;;;;;;;28.95;8.43;;;9.60;66.90;;;;;;5045889;28;20029;-57
2023/04/05 01:19:05;;;;;;;26.33;8.48;;;9.60;66.90;;;;;;5047184;28;20108;-57
2023/04/05 01:21:39;;;;;;;40.10;9.43;;;9.60;66.90;;;;;;5029093;28;20032;-57
2023/04/05 01:24:31;;;;;;;31.80;9.27;;;9.60;66.80;;;;;;5045583;28;20033;-57
2023/04/05 01:27:05;;;;;;;45.05;12.93;;;9.60;66.80;;;;;;5078893;28;20068;-57
2023/04/05 01:29:34;;;;;;;49.45;14.57;;;9.50;66.90;;;;;;5061277;28;20060;-57
2023/04/05 01:32:06;;;;;;;59.28;16.95;;;9.50;67.10;;;;;;5046715;28;20025;-57
2023/04/05 01:34:43;;;;;;;73.55;20.13;;;9.50;67.20;;;;;;5061534;28;20160;-57
2023/04/05 01:37:11;;;;;;;62.10;21.27;;;9.50;67.40;;;;;;5046938;28;20025;-57
2023/04/05 01:39:37;;;;;;;76.20;21.92;;;9.50;67.40;;;;;;5078515;28;20025;-57
2023/04/05 01:42:02;;;;;;;86.05;22.35;;;9.50;67.50;;;;;;5062019;28;20057;-57
2023/04/05 01:44:28;;;;;;;81.93;24.88;;;9.50;67.60;;;;;;5078677;28;20497;-57
2023/04/05 01:46:54;;;;;;;79.20;23.92;;;9.50;67.60;;;;;;5046715;28;20533;-57
2023/04/05 01:49:19;;;;;;;94.60;25.42;;;9.50;67.70;;;;;;5061583;28;20025;-57
2023/04/05 01:51:45;;;;;;;81.47;26.40;;;9.40;67.70;;;;;;5061286;28;20037;-57
2023/04/05 01:54:11;;;;;;;85.75;26.73;;;9.40;67.80;;;;;;5046330;28;20041;-57
2023/04/05 01:56:36;;;;;;;93.95;28.17;;;9.40;67.80;;;;;;5078648;28;20136;-56
2023/04/05 01:59:02;;;;;;;93.95;28.55;;;9.40;67.90;;;;;;5063533;28;20060;-58
2023/04/05 02:01:27;;;;;;;90.43;28.30;;;9.40;68.00;;;;;;5048345;28;20026;-57
2023/04/05 02:03:53;;;;;;;93.05;29.92;;;9.40;68.10;;;;;;5046470;28;20029;-57
2023/04/05 02:06:18;;;;;;;114.45;30.85;;;9.40;68.20;;;;;;5061691;28;20029;-57
2023/04/05 02:08:44;;;;;;;95.70;29.92;;;9.40;68.20;;;;;;5046416;28;20041;-57
2023/04/05 02:11:10;;;;;;;101.15;30.23;;;9.40;68.20;;;;;;5078541;28;20030;-57
2023/04/05 02:13:35;;;;;;;106.43;32.25;;;9.40;69.00;;;;;;5046756;28;20118;-57
2023/04/05 02:16:01;;;;;;;94.65;29.20;;;9.30;68.30;;;;;;5061431;28;20033;-57
2023/04/05 02:18:30;;;;;;;92.05;28.83;;;9.30;68.40;;;;;;5045904;28;20021;-57
2023/04/05 02:21:03;;;;;;;102.75;29.92;;;9.30;68.50;;;;;;5077059;28;20077;-57
2023/04/05 02:23:29;;;;;;;98.45;27.67;;;9.30;68.50;;;;;;5077463;28;20112;-57
2023/04/05 02:25:55;;;;;;;95.18;29.65;;;9.20;68.50;;;;;;5046161;28;20081;-57
2023/04/05 02:28:21;;;;;;;97.90;30.23;;;9.30;68.70;;;;;;5060812;28;20038;-57
2023/04/05 02:30:46;;;;;;;102.15;29.73;;;9.20;69.60;;;;;;5045826;28;20029;-57
2023/04/05 02:33:12;;;;;;;85.57;26.75;;;9.20;68.80;;;;;;5044325;28;20029;-57
2023/04/05 02:35:37;;;;;;;109.45;29.20;;;9.20;68.90;;;;;;5044357;28;20052;-55
2023/04/05 02:38:06;;;;;;;100.60;28.77;;;9.20;69.00;;;;;;5046223;28;20025;-58
2023/04/05 02:40:32;;;;;;;86.35;26.58;;;9.10;69.00;;;;;;5061394;28;20021;-57
2023/04/05 02:42:58;;;;;;;94.93;27.00;;;9.10;69.70;;;;;;5077175;28;20064;-57
2023/04/05 02:45:23;;;;;;;84.00;27.40;;;9.10;69.00;;;;;;5045296;28;20034;-57
2023/04/05 02:47:49;;;;;;;96.07;26.40;;;9.10;69.10;;;;;;5044882;28;20037;-57
2023/04/05 02:50:19;;;;;;;89.85;26.70;;;9.10;69.20;;;;;;5060157;28;20029;-57
2023/04/05 02:52:48;;;;;;;89.30;27.65;;;9.00;69.00;;;;;;5076016;28;20037;-57
2023/04/05 02:55:14;;;;;;;84.18;26.40;;;9.00;69.10;;;;;;5076179;28;20025;-57
2023/04/05 02:57:40;;;;;;;93.80;26.92;;;9.00;69.10;;;;;;5043629;28;20036;-57
2023/04/05 03:00:07;;;;;;;79.13;24.50;;;9.00;69.00;;;;;;5043785;28;20498;-57
2023/04/05 03:02:33;;;;;;;73.95;25.00;;;8.90;69.00;;;;;;5076894;28;20048;-57
2023/04/05 03:05:01;;;;;;;73.75;25.88;;;9.00;69.00;;;;;;5060269;28;20029;-57
2023/04/05 03:07:26;;;;;;;74.90;23.50;;;8.90;69.00;;;;;;5076279;28;20033;-57
2023/04/05 03:09:52;;;;;;;75.22;24.48;;;8.90;68.80;;;;;;5076939;28;20025;-57
2023/04/05 03:12:18;;;;;;;72.15;22.65;;;8.90;68.90;;;;;;5076846;28;20032;-57
2023/04/05 03:14:44;;;;;;;72.32;22.27;;;8.90;68.80;;;;;;5043694;28;20083;-57
2023/04/05 03:17:11;;;;;;;66.70;21.67;;;8.80;68.80;;;;;;5076974;28;20088;-57
2023/04/05 03:19:37;;;;;;;61.35;21.88;;;8.80;69.50;;;;;;5043684;28;20029;-57
2023/04/05 03:22:03;;;;;;;67.97;21.45;;;8.80;68.80;;;;;;5077903;28;20181;-57
2023/04/05 03:24:28;;;;;;;55.10;20.13;;;8.80;68.80;;;;;;5060417;28;20102;-57
2023/04/05 03:26:54;;;;;;;78.80;21.25;;;8.70;68.60;;;;;;5045410;28;20033;-57
2023/04/05 03:29:20;;;;;;;59.33;19.58;;;8.70;68.60;;;;;;5077357;28;20072;-57
2023/04/05 03:31:45;;;;;;;57.17;18.80;;;8.70;68.60;;;;;;5044944;28;20064;-57
2023/04/05 03:34:11;;;;;;;71.15;19.98;;;8.70;68.50;;;;;;5044838;28;20036;-57
2023/04/05 03:36:42;;;;;;;61.30;20.23;;;8.60;68.50;;;;;;5044582;28;20108;-57
2023/04/05 03:39:11;;;;;;;77.15;20.25;;;8.60;68.50;;;;;;5044840;28;20059;-57
2023/04/05 03:41:37;;;;;;;86.32;22.52;;;8.60;68.50;;;;;;5075860;28;20029;-57
2023/04/05 03:44:03;;;;;;;82.78;20.55;;;8.60;68.40;;;;;;5043330;28;20112;-57
2023/04/05 03:46:29;;;;;;;63.42;19.52;;;8.60;68.40;;;;;;5044724;28;20041;-57
2023/04/05 03:48:56;;;;;;;62.00;19.38;;;8.60;68.40;;;;;;5076347;28;20087;-57
2023/04/05 03:51:21;;;;;;;65.03;16.83;;;8.50;68.40;;;;;;5059626;28;20179;-57
2023/04/05 03:53:47;;;;;;;65.22;17.33;;;8.50;68.40;;;;;;5076465;28;20048;-57
2023/04/05 03:56:12;;;;;;;58.47;18.02;;;8.50;68.30;;;;;;5076940;28;20103;-57
2023/04/05 03:58:38;;;;;;;63.70;18.65;;;8.50;68.90;;;;;;5060188;28;20040;-57
2023/04/05 04:01:03;;;;;;;55.78;18.00;;;8.50;68.40;;;;;;5061528;28;20025;-57
2023/04/05 04:03:29;;;;;;;59.05;17.10;;;8.50;68.30;;;;;;5080647;28;20057;-57
2023/04/05 04:05:56;;;;;;;61.10;17.52;;;8.50;68.30;;;;;;5048785;28;20057;-57
2023/04/05 04:08:21;;;;;;;55.95;18.02;;;8.40;68.20;;;;;;5063634;28;20048;-58
2023/04/05 04:10:48;;;;;;;53.35;16.08;;;8.40;68.20;;;;;;5064297;28;20057;-56
2023/04/05 04:13:13;;;;;;;69.13;17.88;;;8.40;68.20;;;;;;5063795;28;20055;-57
2023/04/05 04:15:39;;;;;;;53.10;16.45;;;8.40;68.30;;;;;;5048562;28;20086;-57
2023/04/05 04:18:05;;;;;;;55.47;16.73;;;8.40;68.20;;;;;;5080291;28;20052;-57
2023/04/05 04:20:30;;;;;;;46.65;16.00;;;8.40;68.20;;;;;;5080160;28;20033;-57
2023/04/05 04:22:56;;;;;;;56.03;16.85;;;8.30;68.10;;;;;;5048062;28;20049;-56
2023/04/05 04:25:22;;;;;;;44.90;15.27;;;8.30;68.20;;;;;;5080133;28;20034;-57
2023/04/05 04:27:49;;;;;;;49.60;15.23;;;8.30;68.30;;;;;;5080178;28;20056;-57
2023/04/05 04:30:14;;;;;;;51.55;15.25;;;8.30;68.30;;;;;;5063204;28;20033;-57
2023/04/05 04:33:16;;;;;;;47.72;13.93;;;8.30;68.50;;;;;;5080320;28;20037;-57
2023/04/05 04:35:37;;;;;;;36.55;13.65;;;8.20;68.60;;;;;;5072115;28;20042;-57
2023/04/05 04:38:06;;;;;;;49.55;14.43;;;8.20;68.40;;;;;;5048190;28;20064;-57
2023/04/05 04:40:38;;;;;;;45.13;13.55;;;8.20;68.50;;;;;;5063136;28;20034;-58
2023/04/05 04:43:13;;;;;;;51.38;14.25;;;8.20;69.20;;;;;;5047773;28;20391;-57
2023/04/05 04:45:39;;;;;;;43.22;14.25;;;8.10;68.60;;;;;;5077736;28;20037;-57
2023/04/05 04:48:05;;;;;;;37.55;13.40;;;8.10;68.70;;;;;;5046169;28;20030;-57
2023/04/05 04:50:31;;;;;;;34.17;13.32;;;8.10;68.70;;;;;;5079373;28;20561;-57
2023/04/05 04:52:57;;;;;;;35.03;13.40;;;8.00;68.60;;;;;;5062603;28;20409;-57
2023/04/05 04:55:25;;;;;;;39.10;11.55;;;8.00;68.60;;;;;;5079434;28;20040;-57
2023/04/05 04:57:54;;;;;;;41.63;12.82;;;8.00;68.60;;;;;;5079164;28;20112;-57
2023/04/05 05:00:20;;;;;;;42.47;12.02;;;8.00;68.70;;;;;;5046209;28;20029;-57
2023/04/05 05:02:46;;;;;;;43.90;12.02;;;8.00;68.80;;;;;;5062682;28;20108;-57
2023/04/05 05:05:12;;;;;;;30.58;11.65;;;8.00;68.90;;;;;;5079897;28;20105;-57
2023/04/05 05:07:40;;;;;;;32.85;12.27;;;7.90;68.90;;;;;;5062644;28;20529;-57
2023/04/05 05:10:07;;;;;;;31.90;10.93;;;8.00;69.00;;;;;;5079329;28;20026;-57
2023/04/05 05:12:32;;;;;;;33.97;12.30;;;7.90;68.90;;;;;;5046845;28;20707;-56
2023/04/05 05:14:58;;;;;;;36.13;11.73;;;8.00;69.00;;;;;;5047298;28;20036;-57
2023/04/05 05:17:23;;;;;;;30.40;11.13;;;8.00;68.90;;;;;;5079117;28;20032;-57
2023/04/05 05:19:50;;;;;;;44.13;12.38;;;7.90;69.50;;;;;;5079086;28;20028;-57
2023/04/05 05:22:15;;;;;;;31.08;11.85;;;7.90;68.90;;;;;;5045563;28;20052;-57
2023/04/05 05:24:41;;;;;;;37.80;11.20;;;7.90;69.00;;;;;;5046971;28;20034;-57
2023/04/05 05:27:07;;;;;;;32.97;11.10;;;7.90;69.00;;;;;;5062429;28;20018;-57
2023/04/05 05:29:32;;;;;;;32.00;10.18;;;7.80;69.00;;;;;;5078801;28;20048;-57
2023/04/05 05:31:58;;;;;;;27.80;9.63;;;7.90;69.00;;;;;;5062115;28;20026;-57
2023/04/05 05:34:23;;;;;;;33.15;11.13;;;7.80;69.00;;;;;;5046990;28;20025;-57
2023/04/05 05:36:51;;;;;;;32.40;11.25;;;7.80;69.10;;;;;;5047042;28;20040;-57
2023/04/05 05:39:16;;;;;;;28.90;11.00;;;7.80;68.90;;;;;;5046980;28;20109;-57
2023/04/05 05:41:43;;;;;;;20.48;9.40;;;7.80;69.00;;;;;;5078723;28;20025;-57
2023/04/05 05:44:08;;;;;;;24.92;9.50;;;7.70;69.70;;;;;;5045342;28;20037;-57
2023/04/05 05:46:34;;;;;;;24.83;10.07;;;7.80;69.10;;;;;;5046691;28;20040;-57
2023/04/05 05:49:00;;;;;;;26.23;8.98;;;7.80;69.20;;;;;;5061696;28;20109;-57
2023/04/05 05:51:25;;;;;;;20.45;9.30;;;7.70;69.10;;;;;;5078361;28;20037;-57
2023/04/05 05:53:51;;;;;;;33.05;10.57;;;7.70;69.10;;;;;;5046553;28;20034;-57
2023/04/05 05:56:17;;;;;;;25.40;9.70;;;7.70;69.10;;;;;;5046840;28;20022;-57
2023/04/05 05:58:42;;;;;;;20.25;9.13;;;7.70;69.20;;;;;;5044964;28;20112;-57
2023/04/05 06:01:10;;;;;;;27.98;9.60;;;7.70;69.20;;;;;;5045027;28;20034;-57
2023/04/05 06:03:36;;;;;;;26.60;8.80;;;7.70;69.10;;;;;;5044803;28;20029;-57
2023/04/05 06:06:04;;;;;;;27.92;10.77;;;7.70;69.10;;;;;;5046171;28;20034;-57
2023/04/05 06:08:30;;;;;;;20.20;7.90;;;7.60;69.00;;;;;;5060493;28;20508;-57
2023/04/05 06:10:56;;;;;;;25.15;8.98;;;7.60;69.00;;;;;;5044617;28;20031;-57
2023/04/05 06:13:21;;;;;;;25.75;8.98;;;7.60;69.00;;;;;;5044588;28;20029;-57
2023/04/05 06:15:47;;;;;;;18.15;7.75;;;7.60;69.00;;;;;;5044574;28;20528;-57
2023/04/05 06:18:13;;;;;;;27.30;9.05;;;7.60;69.00;;;;;;5044610;28;20052;-57
2023/04/05 06:20:43;;;;;;;24.02;8.38;;;7.60;68.90;;;;;;5043344;28;20038;-58
2023/04/05 06:23:09;;;;;;;26.17;8.93;;;7.60;68.80;;;;;;5038441;28;20025;-57
2023/04/05 06:25:35;;;;;;;28.95;8.38;;;7.60;68.80;;;;;;5068067;28;20057;-57
2023/04/05 06:28:02;;;;;;;19.15;7.93;;;7.60;68.80;;;;;;5054880;28;20030;-57
2023/04/05 06:30:27;;;;;;;22.25;8.27;;;7.60;68.80;;;;;;5037543;28;20096;-58
2023/04/05 06:32:53;;;;;;;20.38;8.07;;;7.60;68.90;;;;;;5031821;28;20108;-57
2023/04/05 06:35:22;;;;;;;22.92;7.80;;;7.50;68.90;;;;;;5036805;28;20517;-57
2023/04/05 06:37:47;;;;;;;18.58;7.75;;;7.50;68.90;;;;;;5040463;28;20079;-57
2023/04/05 06:40:13;;;;;;;25.98;8.60;;;7.50;68.90;;;;;;5035427;28;20041;-57
2023/04/05 06:42:39;;;;;;;18.92;6.68;;;7.50;68.80;;;;;;5034921;28;20036;-57
2023/04/05 06:45:05;;;;;;;23.98;7.43;;;7.50;68.80;;;;;;5051091;28;20116;-57
2023/04/05 06:47:37;;;;;;;34.80;8.20;;;7.50;69.00;;;;;;5040740;28;20040;-57
2023/04/05 06:50:04;;;;;;;18.05;7.53;;;7.50;69.10;;;;;;5031835;28;20044;-57
2023/04/05 06:52:31;;;;;;;23.60;7.97;;;7.50;69.00;;;;;;5035054;28;20060;-57
2023/04/05 06:54:57;;;;;;;34.78;7.88;;;7.50;69.10;;;;;;5032830;28;20068;-57
2023/04/05 06:57:22;;;;;;;37.33;7.65;;;7.50;69.90;;;;;;5025245;28;20079;-57
2023/04/05 06:59:48;;;;;;;19.08;7.47;;;7.50;69.00;;;;;;5038054;28;20059;-57
2023/04/05 07:02:14;;;;;;;27.10;8.32;;;7.50;68.90;;;;;;5049395;28;20039;-57
2023/04/05 07:04:40;;;;;;;29.38;7.38;;;7.50;68.90;;;;;;5030067;28;20026;-57
2023/04/05 07:07:05;;;;;;;28.52;7.28;;;7.50;68.90;;;;;;5038892;28;20099;-57
2023/04/05 07:09:31;;;;;;;35.38;8.43;;;7.50;68.90;;;;;;5031988;28;20036;-58
2023/04/05 07:12:04;;;;;;;29.20;8.13;;;7.50;69.00;;;;;;5036333;28;20037;-57
2023/04/05 07:14:30;;;;;;;27.95;8.48;;;7.50;68.90;;;;;;5029335;28;20779;-57
2023/04/05 07:16:55;;;;;;;22.95;7.10;;;7.50;68.90;;;;;;5034345;28;20106;-57
2023/04/05 07:19:21;;;;;;;27.10;7.30;;;7.50;68.90;;;;;;5038765;28;20022;-57
2023/04/05 07:21:47;;;;;;;26.00;6.55;;;7.50;69.60;;;;;;5033672;28;20441;-57
2023/04/05 07:24:13;;;;;;;29.08;7.05;;;7.50;69.00;;;;;;5037718;28;20101;-57
2023/04/05 07:26:38;;;;;;;35.45;7.70;;;7.50;69.00;;;;;;5043059;28;20163;-57
2023/04/05 07:29:06;;;;;;;32.38;7.43;;;7.50;68.90;;;;;;5040264;28;20044;-57
2023/04/05 07:31:32;;;;;;;27.48;7.22;;;7.50;68.80;;;;;;5034941;28;20718;-57
2023/04/05 07:34:01;;;;;;;29.42;6.70;;;7.50;68.70;;;;;;5036394;28;20045;-57
2023/04/05 07:36:27;;;;;;;29.75;6.75;;;7.50;68.70;;;;;;5041031;28;20025;-57
2023/04/05 07:38:53;;;;;;;19.15;6.07;;;7.50;68.70;;;;;;5041421;28;20029;-57
2023/04/05 07:41:19;;;;;;;26.65;7.40;;;7.50;68.80;;;;;;5025226;28;20140;-57
2023/04/05 07:43:45;;;;;;;22.15;7.07;;;7.50;68.80;;;;;;5042948;28;20030;-57
2023/04/05 07:46:11;;;;;;;25.17;6.93;;;7.50;68.70;;;;;;5041879;28;20500;-57
2023/04/05 07:48:36;;;;;;;32.20;7.90;;;7.50;68.70;;;;;;5041573;28;20037;-57
2023/04/05 07:51:06;;;;;;;36.83;7.28;;;7.60;68.80;;;;;;5042370;28;20120;-57
2023/04/05 07:53:31;;;;;;;25.17;6.05;;;7.50;68.70;;;;;;5055710;28;20137;-57
2023/04/05 07:55:58;;;;;;;22.92;6.35;;;7.50;68.70;;;;;;5022842;28;20057;-57
2023/04/05 07:58:24;;;;;;;21.10;6.53;;;7.50;68.90;;;;;;5021299;28;20026;-57
2023/04/05 08:00:52;;;;;;;19.95;5.97;;;7.50;68.80;;;;;;5005160;28;20041;-57
2023/04/05 08:03:17;;;;;;;23.92;6.57;;;7.50;68.70;;;;;;5021182;28;20037;-57
2023/04/05 08:05:43;;;;;;;19.98;6.22;;;7.50;68.70;;;;;;5021242;28;20030;-57
2023/04/05 08:08:10;;;;;;;28.85;6.75;;;7.50;68.70;;;;;;5020879;28;20033;-57
2023/04/05 08:10:39;;;;;;;28.95;6.47;;;7.50;68.70;;;;;;5023813;28;20146;-57
2023/04/05 08:13:05;;;;;;;30.02;7.00;;;7.50;68.70;;;;;;5024385;28;20026;-57
2023/04/05 08:15:32;;;;;;;27.55;5.95;;;7.50;68.70;;;;;;5022799;28;20053;-57
2023/04/05 08:17:58;;;;;;;31.63;7.10;;;7.50;68.90;;;;;;5022648;28;20053;-57
2023/04/05 08:20:23;;;;;;;42.72;7.68;;;7.50;69.10;;;;;;5024395;28;20097;-57
2023/04/05 08:22:49;;;;;;;34.03;7.40;;;7.50;69.00;;;;;;5022937;28;20099;-57
2023/04/05 08:25:15;;;;;;;37.70;8.40;;;7.50;68.90;;;;;;5024227;28;20534;-57
2023/04/05 08:27:40;;;;;;;23.67;6.75;;;7.60;68.90;;;;;;5023018;28;20124;-57
2023/04/05 08:30:06;;;;;;;24.70;6.03;;;7.60;68.90;;;;;;5006144;28;20059;-57
2023/04/05 08:32:33;;;;;;;38.03;7.88;;;7.60;69.00;;;;;;5024200;28;20018;-57
2023/04/05 08:34:59;;;;;;;43.78;7.70;;;7.60;69.10;;;;;;5022768;28;20040;-57
2023/04/05 08:37:24;;;;;;;40.88;7.07;;;7.60;69.10;;;;;;5006306;28;20022;-57
2023/04/05 08:39:50;;;;;;;46.17;8.77;;;7.60;69.00;;;;;;5023890;28;20080;-57
2023/04/05 08:42:23;;;;;;;50.00;8.75;;;7.60;69.10;;;;;;5022483;28;20022;-58
2023/04/05 08:44:50;;;;;;;60.28;8.95;;;7.60;69.10;;;;;;5037797;28;20107;-57
2023/04/05 08:47:17;;;;;;;45.30;8.32;;;7.70;69.10;;;;;;5027596;28;20028;-57
2023/04/05 08:49:43;;;;;;;36.50;9.13;;;7.60;69.00;;;;;;5045767;28;20029;-57
2023/04/05 08:52:09;;;;;;;36.13;7.78;;;7.60;69.20;;;;;;5029458;28;20036;-57
2023/04/05 08:54:34;;;;;;;52.63;8.48;;;7.70;69.10;;;;;;5047644;28;20063;-57
2023/04/05 08:57:02;;;;;;;60.45;7.93;;;7.70;69.10;;;;;;5029604;28;20028;-57
2023/04/05 08:59:28;;;;;;;30.63;8.05;;;7.70;69.20;;;;;;5029578;28;20036;-57
2023/04/05 09:01:53;;;;;;;44.92;8.52;;;7.70;69.10;;;;;;5028942;28;20235;-58
2023/04/05 09:04:23;;;;;;;75.07;11.20;;;7.70;69.00;;;;;;5029130;28;20025;-57
2023/04/05 09:06:49;;;;;;;88.53;12.48;;;7.70;69.90;;;;;;5045962;28;20032;-57
2023/04/05 09:09:15;;;;;;;56.75;9.70;;;7.80;69.30;;;;;;5045524;28;20033;-57
2023/04/05 09:11:42;;;;;;;199.75;22.33;;;7.80;69.10;;;;;;5028788;28;20025;-57
2023/04/05 09:14:08;;;;;;;107.43;11.68;;;7.80;69.90;;;;;;5045611;28;20028;-57
2023/04/05 09:16:37;;;;;;;70.78;11.57;;;7.90;69.20;;;;;;5029284;28;20021;-57
2023/04/05 09:19:03;;;;;;;86.20;10.80;;;7.90;69.10;;;;;;5045420;28;20468;-58
2023/04/05 09:21:29;;;;;;;180.85;17.73;;;7.90;69.20;;;;;;5012610;28;20037;-57
2023/04/05 09:23:54;;;;;;;71.68;10.82;;;7.90;69.10;;;;;;5045340;28;20049;-58
2023/04/05 09:26:23;;;;;;;84.28;10.75;;;8.00;69.30;;;;;;5045090;28;20187;-58
2023/04/05 09:28:49;;;;;;;64.32;10.23;;;8.00;69.10;;;;;;5045096;28;20040;-57
2023/04/05 09:31:33;;;;;;;70.82;9.57;;;8.00;68.90;;;;;;5028761;28;20481;-57
2023/04/05 09:34:03;;;;;;;59.65;9.85;;;8.00;68.70;;;;;;5044527;28;20025;-57
2023/04/05 09:36:28;;;;;;;66.60;9.80;;;8.00;68.80;;;;;;5075634;28;20022;-57
2023/04/05 09:39:04;;;;;;;76.47;10.68;;;8.00;68.80;;;;;;5078404;28;20033;-57
2023/04/05 09:41:29;;;;;;;67.30;9.65;;;8.00;69.30;;;;;;5045229;28;20025;-57
2023/04/05 09:43:55;;;;;;;63.05;8.60;;;8.10;68.80;;;;;;5027380;28;20099;-57
2023/04/05 09:46:36;;;;;;;62.25;9.85;;;8.00;68.70;;;;;;5044403;28;20026;-58
2023/04/05 09:49:02;;;;;;;65.15;11.00;;;8.10;68.80;;;;;;5046149;28;20034;-57
2023/04/05 09:51:35;;;;;;;71.13;10.98;;;8.10;68.80;;;;;;5077754;28;20060;-57
2023/04/05 09:54:09;;;;;;;51.17;9.88;;;8.10;68.90;;;;;;5024953;28;20473;-57
2023/04/05 09:56:36;;;;;;;61.38;11.07;;;8.10;68.90;;;;;;5041337;28;20142;-57
2023/04/05 09:59:11;;;;;;;71.55;10.02;;;7.90;68.90;;;;;;5023085;28;20037;-57
2023/04/05 10:01:37;;;;;;;64.88;10.73;;;8.10;69.00;;;;;;5075277;28;20136;-57
2023/04/05 10:04:03;;;;;;;65.60;10.25;;;8.20;69.60;;;;;;5041920;28;20044;-58
2023/04/05 10:06:38;;;;;;;52.80;9.27;;;8.20;68.80;;;;;;5044272;28;20053;-57
2023/04/05 10:09:04;;;;;;;53.08;8.85;;;8.30;68.70;;;;;;5040989;28;20060;-57
2023/04/05 10:11:31;;;;;;;64.80;10.05;;;8.30;68.50;;;;;;5040978;28;20026;-57
2023/04/05 10:14:02;;;;;;;61.78;9.70;;;8.30;68.50;;;;;;5039895;28;20033;-57
2023/04/05 10:16:29;;;;;;;54.13;9.50;;;8.40;68.60;;;;;;5023652;28;20037;-57
2023/04/05 10:18:54;;;;;;;70.07;10.68;;;8.40;68.50;;;;;;5071907;28;20033;-57
2023/04/05 10:21:22;;;;;;;59.05;10.57;;;8.40;68.40;;;;;;5039507;28;20083;-57
2023/04/05 10:23:55;;;;;;;65.70;8.98;;;8.40;68.00;;;;;;5037465;28;20085;-57
2023/04/05 10:26:53;;;;;;;55.40;9.23;;;8.50;67.90;;;;;;5042355;28;20037;-58
2023/04/05 10:29:27;;;;;;;63.80;9.27;;;8.50;68.50;;;;;;5034439;28;20067;-57
2023/04/05 10:32:02;;;;;;;55.38;11.15;;;8.50;68.00;;;;;;5041456;28;20093;-57
2023/04/05 10:34:34;;;;;;;67.38;9.18;;;8.60;68.20;;;;;;5042142;28;20025;-57
2023/04/05 10:37:00;;;;;;;40.92;8.55;;;8.60;68.10;;;;;;5039521;28;20520;-57
2023/04/05 10:39:33;;;;;;;82.03;11.68;;;8.60;67.70;;;;;;5024906;28;20482;-57
2023/04/05 10:42:06;;;;;;;69.22;9.73;;;8.60;67.60;;;;;;5036494;28;20091;-57
2023/04/05 10:44:32;;;;;;;94.13;13.45;;;8.70;67.50;;;;;;5022503;28;20029;-57
2023/04/05 10:46:57;;;;;;;57.20;9.35;;;8.70;67.50;;;;;;5032443;28;20033;-57
2023/04/05 10:49:38;;;;;;;74.10;10.63;;;8.70;67.20;;;;;;5042586;28;20029;-57
2023/04/05 10:52:04;;;;;;;65.63;11.18;;;8.80;67.20;;;;;;5049947;28;20516;-58
2023/04/05 10:54:33;;;;;;;67.47;10.45;;;8.90;67.10;;;;;;5043483;28;20097;-57
2023/04/05 10:57:00;;;;;;;69.55;10.93;;;8.90;67.00;;;;;;5042416;28;20117;-57
2023/04/05 10:59:26;;;;;;;56.70;9.25;;;9.00;66.90;;;;;;5056979;28;20091;-57
2023/04/05 11:01:52;;;;;;;81.70;10.50;;;9.00;66.60;;;;;;5045028;28;20159;-57
2023/04/05 11:04:18;;;;;;;73.13;10.75;;;9.00;66.60;;;;;;5038691;28;20022;-57
2023/04/05 11:06:46;;;;;;;65.13;11.13;;;9.10;66.50;;;;;;5042331;28;20029;-57
2023/04/05 11:09:17;;;;;;;63.30;10.10;;;9.10;66.40;;;;;;5056558;28;20453;-57
2023/04/05 11:11:47;;;;;;;57.40;10.02;;;9.20;66.30;;;;;;5037808;28;20057;-58
2023/04/05 11:14:26;;;;;;;69.72;10.75;;;9.20;66.10;;;;;;5075683;28;20089;-57
2023/04/05 11:16:55;;;;;;;92.70;12.43;;;9.30;66.10;;;;;;5039341;28;20504;-57
2023/04/05 11:19:47;;;;;;;75.28;12.93;;;9.40;66.40;;;;;;5044249;28;20018;-57
2023/04/05 11:22:13;;;;;;;93.60;12.85;;;9.40;66.30;;;;;;5042506;28;20393;-57
2023/04/05 11:24:55;;;;;;;79.75;11.82;;;9.40;66.40;;;;;;5054940;28;20129;-57
2023/04/05 11:27:36;;;;;;;81.03;12.20;;;9.50;66.30;;;;;;5007943;28;20046;-57
2023/04/05 11:30:02;;;;;;;63.63;9.25;;;9.50;66.10;;;;;;5045256;28;20052;-57
2023/04/05 11:32:41;;;;;;;64.45;10.93;;;9.60;66.00;;;;;;5040723;28;20081;-57
2023/04/05 11:35:14;;;;;;;88.47;10.88;;;9.60;65.70;;;;;;5073588;28;20048;-58
2023/04/05 11:38:20;;;;;;;90.47;13.73;;;9.60;65.40;;;;;;5040861;28;20128;-57
2023/04/05 11:40:46;;;;;;;;;;;9.70;65.80;;;;;;5017712;28;20030;-58
2023/04/05 11:43:12;;;;;;;92.40;13.73;;;9.70;65.60;;;;;;5037265;28;20258;-57
2023/04/05 11:45:38;;;;;;;103.68;13.82;;;9.80;65.90;;;;;;5039842;28;20034;-58
2023/04/05 11:48:08;;;;;;;85.25;13.95;;;9.90;65.80;;;;;;5036559;28;20029;-58
2023/04/05 11:50:38;;;;;;;111.03;16.27;;;9.90;65.70;;;;;;5070720;28;20033;-56
2023/04/05 11:53:12;;;;;;;123.97;15.30;;;10.00;65.70;;;;;;5024710;28;20044;-57
2023/04/05 11:55:42;;;;;;;96.73;14.63;;;10.00;65.70;;;;;;5042262;28;20401;-58
2023/04/05 11:58:18;;;;;;;84.63;11.13;;;10.10;65.40;;;;;;5036883;28;20025;-57
2023/04/05 12:00:44;;;;;;;68.68;10.48;;;10.10;65.10;;;;;;5023405;28;20079;-57
2023/04/05 12:03:14;;;;;;;63.08;10.18;;;10.20;65.10;;;;;;5000647;28;20045;-57
2023/04/05 12:05:52;;;;;;;69.22;9.15;;;10.30;64.70;;;;;;5026629;28;20053;-57
2023/04/05 12:08:18;;;;;;;87.28;10.70;;;10.40;64.50;;;;;;5030672;28;20145;-57
2023/04/05 12:10:52;;;;;;;67.68;10.43;;;10.50;64.60;;;;;;5036449;28;20042;-57
2023/04/05 12:13:25;;;;;;;70.40;10.45;;;10.50;64.40;;;;;;5032827;28;20079;-58
2023/04/05 12:15:50;;;;;;;85.47;12.63;;;10.60;64.10;;;;;;5031420;28;20043;-57
2023/04/05 12:18:16;;;;;;;106.63;14.43;;;10.70;64.10;;;;;;5035677;28;20105;-57
2023/04/05 12:20:41;;;;;;;110.35;14.73;;;10.80;64.40;;;;;;5039625;28;20029;-58
2023/04/05 12:23:07;;;;;;;110.05;13.82;;;10.80;64.10;;;;;;5044687;28;20454;-58
2023/04/05 12:25:35;;;;;;;110.07;14.82;;;10.90;64.00;;;;;;5040063;28;20033;-57
2023/04/05 12:28:07;;;;;;;133.32;15.23;;;11.00;64.10;;;;;;5058072;28;20037;-56
2023/04/05 12:30:36;;;;;;;105.40;14.50;;;11.10;64.00;;;;;;5074613;28;20036;-55
2023/04/05 12:33:08;;;;;;;123.07;14.57;;;11.10;63.80;;;;;;5038888;28;20579;-56
2023/04/05 12:35:34;;;;;;;87.75;15.30;;;11.20;63.80;;;;;;5076899;28;20454;-56
2023/04/05 12:38:04;;;;;;;98.68;13.68;;;11.20;63.70;;;;;;5047743;28;20030;-56
2023/04/05 12:40:31;;;;;;;120.20;16.38;;;11.30;63.80;;;;;;5047243;28;20064;-56